createdAt,value
2024-02-21T00:00:49.849Z,650.00
2024-02-21T00:01:49.836Z,650.00
2024-02-21T00:02:49.814Z,650.00
2024-02-21T00:03:49.844Z,648.00
2024-02-21T00:04:49.986Z,647.00
2024-02-21T00:05:49.893Z,645.00
2024-02-21T00:55:52.935Z,628.00
2024-02-21T00:56:49.499Z,631.00
2024-02-21T00:57:49.500Z,629.00
2024-02-21T00:58:49.585Z,629.00
2024-02-21T00:59:49.534Z,628.00
2024-02-21T01:00:49.578Z,630.00
2024-02-21T01:01:49.597Z,631.00
2024-02-21T01:02:52.300Z,632.00
2024-02-21T01:03:49.641Z,630.00
2024-02-21T01:04:49.640Z,627.00
2024-02-21T01:05:49.637Z,626.00
2024-02-21T01:06:49.663Z,626.00
2024-02-21T01:07:49.780Z,625.00
2024-02-21T01:08:49.795Z,624.00
2024-02-21T01:09:49.918Z,622.00
2024-02-21T01:10:50.029Z,619.00
2024-02-21T01:11:50.181Z,617.00
2024-02-21T01:12:50.125Z,615.00
2024-02-21T01:13:50.218Z,616.00
2024-02-21T01:14:50.283Z,617.00
2024-02-21T01:15:50.310Z,619.00
2024-02-21T01:16:50.416Z,622.00
2024-02-21T01:17:50.532Z,621.00
2024-02-21T01:18:50.651Z,620.00
2024-02-21T01:19:50.666Z,620.00
2024-02-21T01:20:50.694Z,619.00
2024-02-21T01:21:50.760Z,618.00
2024-02-21T01:22:50.922Z,617.00
2024-02-21T01:23:50.913Z,615.00
2024-02-21T01:24:50.995Z,615.00
2024-02-21T01:25:51.099Z,615.00
2024-02-21T01:26:51.141Z,616.00
2024-02-21T01:27:51.238Z,615.00
2024-02-21T01:28:51.333Z,614.00
2024-02-21T01:29:51.364Z,616.00
2024-02-21T01:30:51.434Z,616.00
2024-02-21T01:31:51.586Z,617.00
2024-02-21T01:32:51.573Z,615.00
2024-02-21T01:33:51.664Z,614.00
2024-02-21T01:34:51.781Z,614.00
2024-02-21T01:35:52.033Z,613.00
2024-02-21T01:36:51.877Z,614.00
2024-02-21T01:37:51.975Z,613.00
2024-02-21T01:38:52.019Z,612.00
2024-02-21T01:39:52.128Z,612.00
2024-02-21T01:40:52.230Z,612.00
2024-02-21T01:41:52.245Z,610.00
2024-02-21T01:42:52.318Z,613.00
2024-02-21T01:43:52.571Z,613.00
2024-02-21T01:44:52.466Z,613.00
2024-02-21T01:45:52.557Z,613.00
2024-02-21T01:46:52.646Z,610.00
2024-02-21T01:47:52.783Z,611.00
2024-02-21T01:48:52.774Z,611.00
2024-02-21T01:49:52.868Z,609.00
2024-02-21T01:50:52.910Z,606.00
2024-02-21T01:51:52.996Z,607.00
2024-02-21T01:52:53.159Z,604.00
2024-02-21T01:53:53.165Z,604.00
2024-02-21T01:54:53.207Z,605.00
2024-02-21T01:55:53.291Z,604.00
2024-02-21T01:56:53.341Z,605.00
2024-02-21T01:57:53.429Z,605.00
2024-02-21T01:58:53.579Z,607.00
2024-02-21T01:59:53.603Z,607.00
2024-02-21T02:00:53.763Z,607.00
2024-02-21T02:01:53.758Z,607.00
2024-02-21T02:02:53.785Z,606.00
2024-02-21T02:03:53.966Z,606.00
2024-02-21T02:04:54.014Z,607.00
2024-02-21T02:05:53.995Z,607.00
2024-02-21T02:06:54.079Z,606.00
2024-02-21T02:07:54.156Z,608.00
2024-02-21T02:08:54.236Z,607.00
2024-02-21T02:09:54.311Z,605.00
2024-02-21T02:10:54.461Z,605.00
2024-02-21T02:11:54.492Z,606.00
2024-02-21T02:12:54.529Z,607.00
2024-02-21T02:13:54.625Z,606.00
2024-02-21T02:14:54.704Z,601.00
2024-02-21T02:15:54.761Z,600.00
2024-02-21T02:16:54.979Z,598.00
2024-02-21T02:17:54.942Z,598.00
2024-02-21T02:18:55.023Z,597.00
2024-02-21T02:19:55.090Z,598.00
2024-02-21T02:20:55.167Z,594.00
2024-02-21T02:21:55.166Z,595.00
2024-02-21T02:22:55.310Z,596.00
2024-02-21T02:23:55.328Z,598.00
2024-02-21T02:24:55.401Z,596.00
2024-02-21T02:25:55.699Z,596.00
2024-02-21T02:26:55.547Z,596.00
2024-02-21T02:27:55.618Z,598.00
2024-02-21T02:28:55.965Z,603.00
2024-02-21T02:29:55.791Z,605.00
2024-02-21T02:30:55.869Z,605.00
2024-02-21T02:31:55.984Z,606.00
2024-02-21T02:32:56.086Z,607.00
2024-02-21T02:33:56.253Z,605.00
2024-02-21T02:34:56.183Z,607.00
2024-02-21T02:35:56.206Z,605.00
2024-02-21T02:36:56.275Z,605.00
2024-02-21T02:37:56.439Z,604.00
2024-02-21T02:38:56.451Z,605.00
2024-02-21T02:39:56.494Z,604.00
2024-02-21T02:40:56.696Z,603.00
2024-02-21T02:41:56.673Z,603.00
2024-02-21T02:42:56.740Z,602.00
2024-02-21T02:43:56.820Z,600.00
2024-02-21T02:44:56.861Z,599.00
2024-02-21T02:45:56.934Z,597.00
2024-02-21T02:46:57.103Z,598.00
2024-02-21T02:47:57.179Z,597.00
2024-02-21T02:48:57.211Z,599.00
2024-02-21T02:49:57.288Z,596.00
2024-02-21T02:50:57.290Z,595.00
2024-02-21T02:51:57.402Z,595.00
2024-02-21T02:52:57.698Z,594.00
2024-02-21T02:53:57.503Z,596.00
2024-02-21T02:54:58.376Z,595.00
2024-02-21T02:55:57.832Z,597.00
2024-02-21T02:56:57.725Z,599.00
2024-02-21T02:57:57.784Z,598.00
2024-02-21T02:58:57.887Z,596.00
2024-02-21T02:59:57.911Z,595.00
2024-02-21T03:00:58.041Z,595.00
2024-02-21T03:01:58.142Z,594.00
2024-02-21T03:02:58.111Z,594.00
2024-02-21T03:03:58.224Z,595.00
2024-02-21T03:04:58.280Z,597.00
2024-02-21T03:05:58.344Z,595.00
2024-02-21T03:06:58.398Z,594.00
2024-02-21T03:07:58.526Z,595.00
2024-02-21T03:08:58.550Z,594.00
2024-02-21T03:09:58.613Z,591.00
2024-02-21T03:10:58.839Z,589.00
2024-02-21T03:11:58.754Z,588.00
2024-02-21T03:12:58.825Z,589.00
2024-02-21T03:13:58.976Z,589.00
2024-02-21T03:14:58.971Z,588.00
2024-02-21T03:15:59.048Z,588.00
2024-02-21T03:16:59.205Z,590.00
2024-02-21T03:17:59.201Z,592.00
2024-02-21T03:18:59.277Z,595.00
2024-02-21T03:19:59.351Z,596.00
2024-02-21T03:20:59.404Z,596.00
2024-02-21T03:21:59.435Z,597.00
2024-02-21T03:22:59.553Z,597.00
2024-02-21T03:23:59.580Z,600.00
2024-02-21T03:24:59.649Z,602.00
2024-02-21T03:25:59.799Z,599.00
2024-02-21T03:26:59.763Z,596.00
2024-02-21T03:27:59.867Z,595.00
2024-02-21T03:28:59.988Z,597.00
2024-02-21T03:30:00.082Z,595.00
2024-02-21T03:31:00.051Z,596.00
2024-02-21T03:32:00.216Z,597.00
2024-02-21T03:33:00.242Z,595.00
2024-02-21T03:34:00.381Z,595.00
2024-02-21T03:35:00.540Z,595.00
2024-02-21T03:36:00.452Z,593.00
2024-02-21T03:37:00.615Z,593.00
2024-02-21T03:38:00.681Z,593.00
2024-02-21T03:39:00.651Z,593.00
2024-02-21T03:40:00.718Z,593.00
2024-02-21T03:41:00.898Z,593.00
2024-02-21T03:42:00.859Z,594.00
2024-02-21T03:43:00.938Z,589.00
2024-02-21T03:44:01.081Z,586.00
2024-02-21T03:45:01.117Z,586.00
2024-02-21T03:46:01.160Z,586.00
2024-02-21T03:47:01.272Z,588.00
2024-02-21T03:48:01.447Z,588.00
2024-02-21T03:49:01.480Z,586.00
2024-02-21T03:50:01.801Z,586.00
2024-02-21T03:51:01.547Z,584.00
2024-02-21T03:52:01.643Z,585.00
2024-02-21T03:53:01.804Z,585.00
2024-02-21T03:54:01.774Z,587.00
2024-02-21T03:55:01.870Z,590.00
2024-02-21T03:56:01.967Z,591.00
2024-02-21T03:57:02.010Z,591.00
2024-02-21T03:58:02.065Z,589.00
2024-02-21T03:59:02.206Z,589.00
2024-02-21T04:00:02.226Z,590.00
2024-02-21T04:01:02.311Z,592.00
2024-02-21T04:02:02.502Z,594.00
2024-02-21T04:03:02.439Z,594.00
2024-02-21T04:04:02.571Z,594.00
2024-02-21T04:05:02.970Z,594.00
2024-02-21T04:06:02.688Z,595.00
2024-02-21T04:07:02.706Z,594.00
2024-02-21T04:08:02.867Z,593.00
2024-02-21T04:09:02.851Z,594.00
2024-02-21T04:10:02.951Z,594.00
2024-02-21T04:11:03.078Z,593.00
2024-02-21T04:12:03.133Z,590.00
2024-02-21T04:13:03.152Z,590.00
2024-02-21T04:14:03.324Z,589.00
2024-02-21T04:15:03.283Z,589.00
2024-02-21T04:16:03.351Z,588.00
2024-02-21T04:17:03.451Z,592.00
2024-02-21T04:18:03.560Z,591.00
2024-02-21T04:19:03.714Z,592.00
2024-02-21T04:20:03.758Z,592.00
2024-02-21T04:21:03.672Z,592.00
2024-02-21T04:22:03.748Z,590.00
2024-02-21T04:23:03.844Z,589.00
2024-02-21T04:24:03.921Z,586.00
2024-02-21T04:25:04.053Z,587.00
2024-02-21T04:26:04.099Z,586.00
2024-02-21T04:27:04.114Z,585.00
2024-02-21T04:28:04.189Z,587.00
2024-02-21T04:29:04.371Z,586.00
2024-02-21T04:30:04.390Z,587.00
2024-02-21T04:31:04.449Z,586.00
2024-02-21T04:32:04.604Z,585.00
2024-02-21T04:33:04.606Z,584.00
2024-02-21T04:34:04.682Z,583.00
2024-02-21T04:35:04.878Z,582.00
2024-02-21T04:36:04.795Z,581.00
2024-02-21T04:37:04.843Z,583.00
2024-02-21T04:38:04.934Z,583.00
2024-02-21T04:39:04.999Z,582.00
2024-02-21T04:40:05.085Z,582.00
2024-02-21T04:41:05.203Z,581.00
2024-02-21T04:42:05.211Z,581.00
2024-02-21T04:43:05.285Z,581.00
2024-02-21T04:44:05.436Z,581.00
2024-02-21T04:45:05.453Z,581.00
2024-02-21T04:46:05.497Z,584.00
2024-02-21T04:47:05.656Z,584.00
2024-02-21T04:48:05.690Z,581.00
2024-02-21T04:49:05.813Z,580.00
2024-02-21T04:50:05.992Z,579.00
2024-02-21T04:51:05.877Z,580.00
2024-02-21T04:52:05.948Z,579.00
2024-02-21T04:53:06.111Z,580.00
2024-02-21T04:54:06.109Z,579.00
2024-02-21T04:55:13.449Z,581.00
2024-02-21T04:56:14.464Z,573.00
2024-02-21T04:57:14.420Z,570.00
2024-02-21T04:58:14.425Z,570.00
2024-02-21T04:59:14.376Z,573.00
2024-02-21T05:00:14.359Z,573.00
2024-02-21T05:01:14.430Z,570.00
2024-02-21T05:02:15.632Z,570.00
2024-02-21T05:03:14.402Z,569.00
2024-02-21T05:04:14.600Z,567.00
2024-02-21T05:05:14.680Z,568.00
2024-02-21T05:06:14.637Z,568.00
2024-02-21T05:07:14.682Z,567.00
2024-02-21T05:08:14.672Z,566.00
2024-02-21T05:09:14.738Z,567.00
2024-02-21T05:10:14.861Z,567.00
2024-02-21T05:11:15.005Z,566.00
2024-02-21T05:12:14.892Z,566.00
2024-02-21T05:13:15.021Z,568.00
2024-02-21T05:14:15.026Z,567.00
2024-02-21T05:15:15.197Z,568.00
2024-02-21T05:16:15.138Z,566.00
2024-02-21T05:17:15.189Z,566.00
2024-02-21T05:18:15.386Z,565.00
2024-02-21T05:19:15.387Z,566.00
2024-02-21T05:20:15.406Z,568.00
2024-02-21T05:21:15.386Z,569.00
2024-02-21T05:22:15.460Z,571.00
2024-02-21T05:23:15.470Z,570.00
2024-02-21T05:24:15.540Z,569.00
2024-02-21T05:25:15.613Z,569.00
2024-02-21T05:26:17.942Z,571.00
2024-02-21T05:27:15.656Z,572.00
2024-02-21T05:28:15.707Z,572.00
2024-02-21T05:29:15.627Z,572.00
2024-02-21T05:30:15.628Z,571.00
2024-02-21T05:31:15.737Z,574.00
2024-02-21T05:32:15.647Z,572.00
2024-02-21T05:33:15.744Z,573.00
2024-02-21T05:34:15.736Z,574.00
2024-02-21T05:35:15.684Z,575.00
2024-02-21T05:36:15.630Z,574.00
2024-02-21T05:37:15.649Z,577.00
2024-02-21T05:38:15.708Z,576.00
2024-02-21T05:39:15.769Z,574.00
2024-02-21T05:40:15.841Z,572.00
2024-02-21T05:41:15.902Z,572.00
2024-02-21T05:42:15.910Z,573.00
2024-02-21T05:43:16.186Z,574.00
2024-02-21T05:44:16.014Z,574.00
2024-02-21T05:45:16.071Z,574.00
2024-02-21T05:46:16.159Z,576.00
2024-02-21T05:47:16.204Z,576.00
2024-02-21T05:48:16.395Z,576.00
2024-02-21T05:49:16.469Z,575.00
2024-02-21T05:50:16.415Z,574.00
2024-02-21T05:51:16.408Z,573.00
2024-02-21T05:52:16.583Z,574.00
2024-02-21T05:53:16.516Z,574.00
2024-02-21T05:54:16.564Z,572.00
2024-02-21T05:55:16.692Z,573.00
2024-02-21T05:56:16.696Z,571.00
2024-02-21T05:57:16.759Z,570.00
2024-02-21T05:58:16.906Z,569.00
2024-02-21T05:59:16.913Z,570.00
2024-02-21T06:00:16.944Z,571.00
2024-02-21T06:01:17.038Z,572.00
2024-02-21T06:02:17.062Z,573.00
2024-02-21T06:03:17.122Z,576.00
2024-02-21T06:04:17.287Z,577.00
2024-02-21T06:05:17.279Z,577.00
2024-02-21T06:06:17.260Z,577.00
2024-02-21T06:07:17.474Z,577.00
2024-02-21T06:08:17.472Z,576.00
2024-02-21T06:09:17.426Z,575.00
2024-02-21T06:10:17.638Z,574.00
2024-02-21T06:11:17.650Z,573.00
2024-02-21T06:12:17.803Z,572.00
2024-02-21T06:13:17.762Z,571.00
2024-02-21T06:14:17.705Z,570.00
2024-02-21T06:15:17.774Z,570.00
2024-02-21T06:16:17.797Z,570.00
2024-02-21T06:17:17.827Z,570.00
2024-02-21T06:18:17.937Z,570.00
2024-02-21T06:19:18.169Z,569.00
2024-02-21T06:20:18.092Z,571.00
2024-02-21T06:21:18.048Z,573.00
2024-02-21T06:22:18.127Z,572.00
2024-02-21T06:23:18.164Z,572.00
2024-02-21T06:24:18.497Z,573.00
2024-02-21T06:25:18.305Z,575.00
2024-02-21T06:26:18.349Z,574.00
2024-02-21T06:27:18.377Z,572.00
2024-02-21T06:28:18.438Z,571.00
2024-02-21T06:29:18.481Z,572.00
2024-02-21T06:30:18.546Z,571.00
2024-02-21T06:31:18.625Z,570.00
2024-02-21T06:32:18.649Z,570.00
2024-02-21T06:33:18.743Z,569.00
2024-02-21T06:34:18.974Z,568.00
2024-02-21T06:35:18.876Z,571.00
2024-02-21T06:36:18.841Z,570.00
2024-02-21T06:37:18.936Z,570.00
2024-02-21T06:38:19.010Z,572.00
2024-02-21T06:39:19.004Z,571.00
2024-02-21T06:40:19.053Z,570.00
2024-02-21T06:41:19.080Z,568.00
2024-02-21T06:42:19.118Z,565.00
2024-02-21T06:43:19.198Z,564.00
2024-02-21T06:44:19.227Z,567.00
2024-02-21T06:45:19.268Z,568.00
2024-02-21T06:46:19.344Z,570.00
2024-02-21T06:47:19.535Z,571.00
2024-02-21T06:48:19.525Z,567.00
2024-02-21T06:49:19.695Z,565.00
2024-02-21T06:50:19.663Z,564.00
2024-02-21T06:51:19.615Z,563.00
2024-02-21T06:52:20.019Z,563.00
2024-02-21T06:53:20.001Z,561.00
2024-02-21T06:54:20.200Z,561.00
2024-02-21T06:55:19.812Z,562.00
2024-02-21T06:56:19.816Z,564.00
2024-02-21T06:57:19.867Z,568.00
2024-02-21T06:58:20.088Z,566.00
2024-02-21T06:59:20.023Z,568.00
2024-02-21T07:00:21.973Z,566.00
2024-02-21T07:01:20.620Z,564.00
2024-02-21T07:02:20.128Z,567.00
2024-02-21T07:03:20.528Z,564.00
2024-02-21T07:04:23.292Z,561.00
2024-02-21T07:05:20.177Z,560.00
2024-02-21T07:06:21.128Z,558.00
2024-02-21T07:07:20.139Z,561.00
2024-02-21T07:08:21.428Z,563.00
2024-02-21T07:09:23.363Z,571.00
2024-02-21T07:10:20.237Z,604.00
2024-02-21T07:11:20.326Z,613.00
2024-02-21T07:12:20.173Z,611.00
2024-02-21T07:13:20.565Z,611.00
2024-02-21T07:14:21.176Z,616.00
2024-02-21T07:15:20.182Z,623.00
2024-02-21T07:16:20.228Z,628.00
2024-02-21T07:17:20.172Z,630.00
2024-02-21T07:18:20.343Z,633.00
2024-02-21T07:19:20.614Z,634.00
2024-02-21T07:20:20.238Z,638.00
2024-02-21T07:21:20.181Z,641.00
2024-02-21T07:22:20.211Z,642.00
2024-02-21T07:23:20.384Z,646.00
2024-02-21T07:24:20.600Z,646.00
2024-02-21T07:25:20.516Z,646.00
2024-02-21T07:26:20.545Z,650.00
2024-02-21T07:27:20.533Z,651.00
2024-02-21T07:28:20.598Z,653.00
2024-02-21T07:29:20.567Z,656.00
2024-02-21T07:30:20.609Z,655.00
2024-02-21T07:31:20.667Z,657.00
2024-02-21T07:32:21.225Z,659.00
2024-02-21T07:33:20.816Z,664.00
2024-02-21T07:34:20.944Z,662.00
2024-02-21T07:35:20.998Z,663.00
2024-02-21T07:36:20.920Z,663.00
2024-02-21T07:37:21.018Z,662.00
2024-02-21T07:38:21.094Z,663.00
2024-02-21T07:39:21.075Z,662.00
2024-02-21T07:40:21.174Z,664.00
2024-02-21T07:41:21.195Z,667.00
2024-02-21T07:42:21.511Z,668.00
2024-02-21T07:43:22.624Z,671.00
2024-02-21T07:44:21.609Z,674.00
2024-02-21T07:45:21.746Z,674.00
2024-02-21T07:46:21.754Z,673.00
2024-02-21T07:47:21.786Z,673.00
2024-02-21T07:48:22.189Z,675.00
2024-02-21T07:49:22.099Z,676.00
2024-02-21T07:50:21.836Z,681.00
2024-02-21T07:51:21.758Z,684.00
2024-02-21T07:52:21.826Z,683.00
2024-02-21T07:53:21.851Z,685.00
2024-02-21T07:54:22.119Z,684.00
2024-02-21T07:55:22.020Z,684.00
2024-02-21T07:56:22.029Z,688.00
2024-02-21T07:57:22.099Z,686.00
2024-02-21T07:58:22.183Z,688.00
2024-02-21T07:59:22.550Z,689.00
2024-02-21T08:00:22.247Z,688.00
2024-02-21T08:01:22.436Z,691.00
2024-02-21T08:02:22.369Z,693.00
2024-02-21T08:03:23.036Z,693.00
2024-02-21T08:04:22.666Z,693.00
2024-02-21T08:05:22.707Z,691.00
2024-02-21T08:06:22.638Z,693.00
2024-02-21T08:07:22.666Z,695.00
2024-02-21T08:08:22.723Z,697.00
2024-02-21T08:09:23.036Z,695.00
2024-02-21T08:10:23.316Z,695.00
2024-02-21T08:11:23.049Z,693.00
2024-02-21T08:12:22.942Z,694.00
2024-02-21T08:13:23.371Z,694.00
2024-02-21T08:14:23.024Z,693.00
2024-02-21T08:15:23.079Z,693.00
2024-02-21T08:16:23.802Z,696.00
2024-02-21T08:17:23.665Z,698.00
2024-02-21T08:18:24.219Z,698.00
2024-02-21T08:19:30.144Z,699.00
2024-02-21T08:20:23.903Z,697.00
2024-02-21T08:21:23.919Z,696.00
2024-02-21T08:22:25.405Z,699.00
2024-02-21T08:23:23.956Z,704.00
2024-02-21T08:24:23.822Z,703.00
2024-02-21T08:25:23.599Z,705.00
2024-02-21T08:26:23.856Z,708.00
2024-02-21T08:27:23.714Z,708.00
2024-02-21T08:28:23.614Z,707.00
2024-02-21T08:29:23.985Z,706.00
2024-02-21T08:30:23.778Z,705.00
2024-02-21T08:31:23.771Z,706.00
2024-02-21T08:32:23.349Z,704.00
2024-02-21T08:33:23.582Z,705.00
2024-02-21T08:34:23.695Z,707.00
2024-02-21T08:35:24.277Z,708.00
2024-02-21T08:36:23.559Z,709.00
2024-02-21T08:37:23.651Z,713.00
2024-02-21T08:38:23.304Z,729.00
2024-02-21T08:39:23.397Z,722.00
2024-02-21T08:40:23.644Z,727.00
2024-02-21T08:41:26.286Z,725.00
2024-02-21T08:42:23.468Z,722.00
2024-02-21T08:44:57.872Z,728.00
2024-02-21T08:45:27.814Z,727.00
2024-02-21T08:46:27.907Z,727.00
2024-02-21T08:47:27.815Z,726.00
2024-02-21T08:48:27.870Z,728.00
2024-02-21T08:51:03.510Z,739.00
2024-02-21T08:51:32.443Z,745.00
2024-02-21T08:52:32.299Z,751.00
2024-02-21T08:53:32.284Z,754.00
2024-02-21T08:54:32.645Z,758.00
2024-02-21T08:55:33.133Z,763.00
2024-02-21T08:57:58.342Z,769.00
2024-02-21T09:00:07.971Z,775.00
2024-02-21T09:00:36.893Z,785.00
2024-02-21T09:01:37.390Z,797.00
2024-02-21T09:25:54.277Z,879.00
2024-02-21T09:26:22.182Z,879.00
2024-02-21T09:30:02.692Z,888.00
2024-02-21T09:30:30.682Z,889.00
2024-02-21T09:31:30.236Z,889.00
2024-02-21T09:32:32.726Z,890.00
2024-02-21T09:37:08.901Z,888.00
2024-02-21T09:37:41.141Z,887.00
2024-02-21T09:40:36.978Z,882.00
2024-02-21T09:41:04.747Z,883.00
2024-02-21T09:43:39.715Z,885.00
2024-02-21T09:44:11.281Z,881.00
2024-02-21T09:45:56.318Z,881.00
2024-02-21T09:46:29.282Z,884.00
2024-02-21T09:47:09.146Z,886.00
2024-02-21T09:48:09.370Z,887.00
2024-02-21T09:49:09.318Z,888.00
2024-02-21T09:50:39.881Z,889.00
2024-02-21T09:51:09.062Z,890.00
2024-02-21T09:52:09.264Z,891.00
2024-02-21T09:53:09.590Z,894.00
2024-02-21T09:54:15.799Z,896.00
2024-02-21T09:55:09.651Z,895.00
2024-02-21T09:56:10.331Z,896.00
2024-02-21T09:57:09.107Z,896.00
2024-02-21T09:58:09.235Z,892.00
2024-02-21T09:59:10.279Z,892.00
2024-02-21T10:00:09.460Z,889.00
2024-02-21T10:01:20.735Z,892.00
2024-02-21T10:02:09.217Z,889.00
2024-02-21T10:03:09.421Z,887.00
2024-02-21T10:04:09.252Z,888.00
2024-02-21T10:05:09.306Z,887.00
2024-02-21T10:06:09.144Z,879.00
2024-02-21T10:07:09.194Z,875.00
2024-02-21T10:08:09.188Z,871.00
2024-02-21T10:09:09.168Z,866.00
2024-02-21T10:10:09.181Z,864.00
2024-02-21T10:12:54.291Z,862.00
2024-02-21T10:14:47.783Z,861.00
2024-02-21T10:15:17.118Z,856.00
2024-02-21T10:16:17.083Z,854.00
2024-02-21T10:17:17.010Z,852.00
2024-02-21T10:18:17.051Z,845.00
2024-02-21T10:19:17.098Z,844.00
2024-02-21T10:20:17.079Z,848.00
2024-02-21T10:21:17.000Z,849.00
2024-02-21T10:22:17.433Z,847.00
2024-02-21T10:23:17.145Z,845.00
2024-02-21T10:24:17.603Z,844.00
2024-02-21T10:25:17.160Z,843.00
2024-02-21T10:26:17.875Z,840.00
2024-02-21T10:27:17.056Z,842.00
2024-02-21T10:29:48.782Z,832.00
2024-02-21T10:30:22.266Z,833.00
2024-02-21T10:31:21.548Z,831.00
2024-02-21T10:32:21.578Z,829.00
2024-02-21T10:33:21.963Z,823.00
2024-02-21T10:38:31.434Z,811.00
2024-02-21T10:38:52.557Z,810.00
2024-02-21T10:39:52.995Z,812.00
2024-02-21T10:40:52.766Z,814.00
2024-02-21T10:41:52.636Z,815.00
2024-02-21T10:42:52.680Z,816.00
2024-02-21T10:43:52.760Z,814.00
2024-02-21T10:44:54.348Z,813.00
2024-02-21T10:45:52.842Z,818.00
2024-02-21T10:46:52.753Z,820.00
2024-02-21T10:47:53.431Z,819.00
2024-02-21T10:50:38.899Z,810.00
2024-02-21T10:51:19.638Z,806.00
2024-02-21T10:51:59.475Z,801.00
2024-02-21T10:58:50.439Z,799.00
2024-02-21T10:59:19.112Z,801.00
2024-02-21T11:00:19.156Z,797.00
2024-02-21T11:01:19.390Z,793.00
2024-02-21T11:02:19.857Z,791.00
2024-02-21T11:03:20.303Z,790.00
2024-02-21T11:10:14.304Z,792.00
2024-02-21T11:12:35.746Z,798.00
2024-02-21T11:13:06.908Z,799.00
2024-02-21T11:14:35.104Z,803.00
2024-02-21T11:15:04.882Z,806.00
2024-02-21T11:16:04.921Z,806.00
2024-02-21T11:17:04.946Z,808.00
2024-02-21T11:19:40.515Z,806.00
2024-02-21T11:20:09.571Z,805.00
2024-02-21T11:21:09.338Z,805.00
2024-02-21T11:22:09.371Z,804.00
2024-02-21T11:23:09.517Z,800.00
2024-02-21T11:24:10.379Z,798.00
2024-02-21T11:25:09.411Z,793.00
2024-02-21T11:26:09.554Z,790.00
2024-02-21T11:27:09.633Z,790.00
2024-02-21T11:28:10.756Z,787.00
2024-02-21T11:29:09.497Z,785.00
2024-02-21T11:30:09.662Z,782.00
2024-02-21T11:31:09.760Z,780.00
2024-02-21T11:34:49.636Z,772.00
2024-02-21T11:35:18.368Z,772.00
2024-02-21T11:36:19.590Z,773.00
2024-02-21T11:37:49.492Z,775.00
2024-02-21T11:38:18.665Z,775.00
2024-02-21T11:39:18.453Z,779.00
2024-02-21T11:40:18.596Z,781.00
2024-02-21T11:41:18.507Z,782.00
2024-02-21T11:42:18.504Z,787.00
2024-02-21T11:44:55.432Z,793.00
2024-02-21T11:45:22.885Z,792.00
2024-02-21T11:46:23.058Z,795.00
2024-02-21T11:47:23.195Z,797.00
2024-02-21T11:56:52.154Z,816.00
2024-02-21T11:57:21.141Z,819.00
2024-02-21T11:58:52.018Z,821.00
2024-02-21T12:02:01.145Z,823.00
2024-02-21T12:05:44.174Z,814.00
2024-02-21T12:08:42.542Z,824.00
2024-02-21T12:15:18.064Z,833.00
2024-02-21T12:15:44.590Z,832.00
2024-02-21T12:16:44.430Z,835.00
2024-02-21T12:17:44.774Z,839.00
2024-02-21T12:20:28.721Z,839.00
2024-02-21T12:21:08.768Z,840.00
2024-02-21T12:21:48.641Z,838.00
2024-02-21T12:22:50.802Z,839.00
2024-02-21T12:26:35.125Z,841.00
2024-02-21T12:26:57.187Z,843.00
2024-02-21T12:27:57.083Z,848.00
2024-02-21T12:28:59.674Z,851.00
2024-02-21T12:29:57.120Z,853.00
2024-02-21T12:30:56.957Z,856.00
2024-02-21T12:31:57.626Z,858.00
2024-02-21T12:32:56.915Z,866.00
2024-02-21T12:33:56.856Z,878.00
2024-02-21T12:35:11.766Z,899.00
2024-02-21T12:35:56.890Z,909.00
2024-02-21T12:36:56.631Z,913.00
2024-02-21T12:37:58.272Z,917.00
2024-02-21T12:38:56.539Z,916.00
2024-02-21T12:39:56.563Z,910.00
2024-02-21T12:40:56.613Z,907.00
2024-02-21T12:41:56.949Z,906.00
2024-02-21T12:43:26.459Z,904.00
2024-02-21T12:43:56.545Z,905.00
2024-02-21T12:44:56.854Z,922.00
2024-02-21T12:45:56.211Z,939.00
2024-02-21T12:46:56.595Z,946.00
2024-02-21T12:47:56.435Z,945.00
2024-02-21T12:51:51.942Z,930.00
2024-02-21T12:52:05.892Z,927.00
2024-02-21T12:53:13.587Z,925.00
2024-02-21T12:54:04.747Z,928.00
2024-02-21T12:55:06.036Z,938.00
2024-02-21T13:11:50.066Z,1025.00
2024-02-21T13:12:14.738Z,1023.00
2024-02-21T13:13:13.374Z,1017.00
2024-02-21T13:14:12.214Z,1013.00
2024-02-21T13:15:13.834Z,1009.00
2024-02-21T13:16:12.131Z,1003.00
2024-02-21T13:17:13.767Z,996.00
2024-02-21T13:18:12.120Z,984.00
2024-02-21T13:19:13.232Z,979.00
2024-02-21T13:20:12.287Z,977.00
2024-02-21T13:23:03.785Z,965.00
2024-02-21T13:23:35.532Z,960.00
2024-02-21T13:24:35.346Z,956.00
2024-02-21T13:25:35.432Z,952.00
2024-02-21T13:26:35.354Z,951.00
2024-02-21T13:27:35.367Z,947.00
2024-02-21T13:28:35.486Z,947.00
2024-02-21T13:29:34.274Z,948.00
2024-02-21T13:30:35.241Z,948.00
2024-02-21T13:31:37.169Z,947.00
2024-02-21T13:36:19.300Z,932.00
2024-02-21T13:36:48.126Z,931.00
2024-02-21T13:37:48.561Z,926.00
2024-02-21T13:38:48.123Z,924.00
2024-02-21T13:39:47.967Z,919.00
2024-02-21T13:40:48.089Z,913.00
2024-02-21T13:41:48.057Z,910.00
2024-02-21T13:42:47.979Z,901.00
2024-02-21T13:43:48.007Z,896.00
2024-02-21T13:44:47.842Z,894.00
2024-02-21T13:45:47.866Z,891.00
2024-02-21T13:46:47.828Z,892.00
2024-02-21T13:50:27.372Z,880.00
2024-02-21T13:50:56.609Z,879.00
2024-02-21T13:51:56.351Z,875.00
2024-02-21T13:52:56.338Z,867.00
2024-02-21T13:53:56.584Z,859.00
2024-02-21T13:54:56.281Z,861.00
2024-02-21T13:57:31.267Z,858.00
2024-02-21T13:58:00.576Z,855.00
2024-02-21T13:59:00.832Z,852.00
2024-02-21T14:08:28.367Z,903.00
2024-02-21T14:08:56.627Z,900.00
2024-02-21T14:09:56.741Z,892.00
2024-02-21T14:10:56.570Z,888.00
2024-02-21T14:11:56.380Z,884.00
2024-02-21T14:12:56.275Z,881.00
2024-02-21T14:13:56.286Z,885.00
2024-02-21T14:14:56.255Z,944.00
2024-02-21T14:15:56.488Z,947.00
2024-02-21T14:16:56.180Z,948.00
2024-02-21T14:17:56.109Z,947.00
2024-02-21T14:18:56.107Z,946.00
2024-02-21T14:19:55.967Z,942.00
2024-02-21T14:20:55.927Z,935.00
2024-02-21T14:21:55.886Z,932.00
2024-02-21T14:22:55.842Z,927.00
2024-02-21T14:23:55.784Z,924.00
2024-02-21T14:24:56.163Z,925.00
2024-02-21T14:25:55.741Z,925.00
2024-02-21T14:26:55.637Z,925.00
2024-02-21T14:27:55.594Z,922.00
2024-02-21T14:28:55.896Z,919.00
2024-02-21T14:29:55.667Z,919.00
2024-02-21T14:30:55.990Z,922.00
2024-02-21T14:31:55.436Z,925.00
2024-02-21T14:32:55.490Z,923.00
2024-02-21T14:33:55.365Z,925.00
2024-02-21T14:34:55.651Z,928.00
2024-02-21T14:35:55.218Z,928.00
2024-02-21T14:36:55.176Z,925.00
2024-02-21T14:37:55.131Z,927.00
2024-02-21T14:38:55.048Z,929.00
2024-02-21T14:39:55.142Z,931.00
2024-02-21T14:40:54.978Z,932.00
2024-02-21T14:41:55.168Z,932.00
2024-02-21T14:42:54.851Z,935.00
2024-02-21T14:43:54.838Z,934.00
2024-02-21T14:44:54.750Z,935.00
2024-02-21T14:45:54.730Z,935.00
2024-02-21T14:46:54.702Z,934.00
2024-02-21T14:47:54.699Z,932.00
2024-02-21T14:48:54.684Z,935.00
2024-02-21T14:49:54.559Z,936.00
2024-02-21T14:50:54.472Z,937.00
2024-02-21T14:51:54.416Z,940.00
2024-02-21T14:52:54.422Z,942.00
2024-02-21T14:53:54.336Z,943.00
2024-02-21T14:54:54.312Z,942.00
2024-02-21T14:55:54.320Z,942.00
2024-02-21T14:56:54.290Z,943.00
2024-02-21T14:57:54.428Z,944.00
2024-02-21T14:58:56.389Z,944.00
2024-02-21T14:59:54.358Z,944.00
2024-02-21T15:00:54.232Z,943.00
2024-02-21T15:01:54.179Z,945.00
2024-02-21T15:02:54.044Z,947.00
2024-02-21T15:03:54.043Z,947.00
2024-02-21T15:04:54.196Z,946.00
2024-02-21T15:05:53.897Z,945.00
2024-02-21T15:06:53.880Z,942.00
2024-02-21T15:07:53.871Z,941.00
2024-02-21T15:08:53.758Z,939.00
2024-02-21T15:09:53.812Z,936.00
2024-02-21T15:10:54.231Z,937.00
2024-02-21T15:11:53.703Z,934.00
2024-02-21T15:12:53.660Z,935.00
2024-02-21T15:13:53.660Z,935.00